Time;durP1;ratioP1;P1;durP2;ratioP2;P2;SDS_P1;SDS_P2;PMS_P1;PMS_P2;Temp;Humidity;BMP_temperature;BMP_pressure;BME280_temperature;BME280_humidity;BME280_pressure;Samples;Min_cycle;Max_cycle;Signal;HPM_P1;HPM_P2
2023/11/01 00:24:33;;;;;;;4.23;1.60;;;;;;;;;;6071138;22;20146;-78
2023/11/01 01:07:23;;;;;;;11.63;2.55;;;;;;;;;;5394023;23;20046;-78
2023/11/01 01:09:56;;;;;;;5.10;1.60;;;;;;;;;;5021648;28;20033;-77
2023/11/01 01:12:30;;;;;;;10.37;2.17;;;;;;;;;;5062650;22;1161169;-77
2023/11/01 01:15:13;;;;;;;10.77;1.80;;;;;;;;;;4999044;28;20053;-78
2023/11/01 01:17:39;;;;;;;8.07;1.70;;;;;;;;;;4998947;28;20106;-78
2023/11/01 01:20:06;;;;;;;6.50;1.63;;;;;;;;;;4999231;28;20026;-78
2023/11/01 01:22:37;;;;;;;10.43;1.80;;;;;;;;;;5003963;28;20026;-78
2023/11/01 01:25:30;;;;;;;8.63;2.07;;;;;;;;;;5359788;23;20061;-77
2023/11/01 01:27:56;;;;;;;8.73;1.60;;;;;;;;;;5020097;28;20030;-79
2023/11/01 01:30:26;;;;;;;7.37;1.60;;;;;;;;;;5007731;28;20081;-78
2023/11/01 01:32:55;;;;;;;6.60;1.57;;;;;;;;;;5013817;28;20102;-78
2023/11/01 01:35:24;;;;;;;7.70;1.60;;;;;;;;;;5013392;28;20046;-78
2023/11/01 01:37:55;;;;;;;5.00;1.60;;;;;;;;;;5013168;28;20046;-77
2023/11/01 01:40:21;;;;;;;5.53;1.90;;;;;;;;;;5013122;28;20057;-78
2023/11/01 01:42:49;;;;;;;7.43;3.20;;;;;;;;;;5012607;28;20042;-77
2023/11/01 01:45:36;;;;;;;6.53;2.93;;;;;;;;;;5009064;28;20023;-78
2023/11/01 01:48:09;;;;;;;6.20;2.50;;;;;;;;;;5013333;28;20038;-77
2023/11/01 01:50:58;;;;;;;7.20;2.57;;;;;;;;;;5007737;28;20026;-77
2023/11/01 01:53:27;;;;;;;11.13;3.20;;;;;;;;;;5013031;28;20046;-78
2023/11/01 01:56:03;;;;;;;9.03;3.40;;;;;;;;;;5013336;28;20022;-78
2023/11/01 01:58:46;;;;;;;9.17;3.30;;;;;;;;;;5012937;28;20034;-77
2023/11/01 02:01:12;;;;;;;;;;;;;;;;;;5029039;28;20026;-78
2023/11/01 02:03:40;;;;;;;14.37;3.30;;;;;;;;;;5025197;28;19909;-78
2023/11/01 02:06:06;;;;;;;6.03;2.70;;;;;;;;;;5008890;28;20041;-77
2023/11/01 02:08:36;;;;;;;7.47;2.80;;;;;;;;;;5012006;28;20029;-78
2023/11/01 02:11:05;;;;;;;7.97;2.17;;;;;;;;;;5008559;28;20089;-78
2023/11/01 02:13:31;;;;;;;9.20;3.00;;;;;;;;;;5028522;28;20034;-78
2023/11/01 02:15:59;;;;;;;8.67;2.40;;;;;;;;;;5013590;28;20026;-77
2023/11/01 02:18:28;;;;;;;11.80;2.93;;;;;;;;;;5096503;23;20042;-78
2023/11/01 02:21:12;;;;;;;10.33;2.90;;;;;;;;;;5031331;28;20103;-78
2023/11/01 02:23:45;;;;;;;7.43;2.47;;;;;;;;;;5048133;28;20037;-78
2023/11/01 02:26:11;;;;;;;4.73;2.03;;;;;;;;;;5032497;28;20029;-78
2023/11/01 02:28:48;;;;;;;10.13;2.83;;;;;;;;;;5029134;28;20026;-78
2023/11/01 02:31:21;;;;;;;10.20;2.40;;;;;;;;;;5028296;28;20041;-77
2023/11/01 02:34:04;;;;;;;;;;;;;;;;;;;;;
2023/11/01 02:36:30;;;;;;;;;;;;;;;;;;5033270;28;20044;-78
2023/11/01 02:38:56;;;;;;;7.27;2.17;;;;;;;;;;5030497;28;19910;-78
2023/11/01 02:41:22;;;;;;;6.70;2.23;;;;;;;;;;5030028;28;20029;-78
2023/11/01 02:43:58;;;;;;;6.30;2.07;;;;;;;;;;5029087;28;20049;-81
2023/11/01 02:46:24;;;;;;;4.27;2.20;;;;;;;;;;5046285;28;20018;-78
2023/11/01 02:49:03;;;;;;;;;;;;;;;;;;;;;
2023/11/01 02:51:37;;;;;;;6.80;2.00;;;;;;;;;;5030798;28;20057;-78
2023/11/01 02:54:19;;;;;;;7.83;2.00;;;;;;;;;;5027662;28;20014;-78
2023/11/01 02:56:50;;;;;;;5.37;2.23;;;;;;;;;;5025720;28;20049;-78
2023/11/01 02:59:19;;;;;;;5.23;1.90;;;;;;;;;;5047491;28;20060;-78
2023/11/01 03:01:45;;;;;;;5.80;2.00;;;;;;;;;;5028390;28;20297;-77
2023/11/01 03:04:11;;;;;;;7.37;2.47;;;;;;;;;;5029403;28;20026;-77
2023/11/01 03:06:39;;;;;;;6.57;1.90;;;;;;;;;;5024832;28;20033;-77
2023/11/01 03:09:10;;;;;;;6.60;2.57;;;;;;;;;;5029102;28;20041;-77
2023/11/01 03:11:39;;;;;;;6.53;2.37;;;;;;;;;;5030456;28;20026;-78
2023/11/01 03:14:07;;;;;;;10.83;3.30;;;;;;;;;;5047230;28;20074;-79
2023/11/01 03:16:37;;;;;;;8.70;2.90;;;;;;;;;;5029682;28;20539;-78
2023/11/01 03:19:08;;;;;;;10.70;3.00;;;;;;;;;;5030505;28;20030;-77
2023/11/01 03:21:39;;;;;;;13.43;2.67;;;;;;;;;;5099299;23;20041;-77
2023/11/01 03:24:05;;;;;;;13.83;3.53;;;;;;;;;;5012453;28;20022;-78
2023/11/01 03:26:34;;;;;;;7.50;1.83;;;;;;;;;;5033362;28;20033;-78
2023/11/01 03:29:04;;;;;;;7.03;2.20;;;;;;;;;;5076232;23;20065;-78
2023/11/01 03:31:33;;;;;;;8.77;2.43;;;;;;;;;;4995216;28;20050;-78
2023/11/01 03:34:02;;;;;;;4.80;1.73;;;;;;;;;;4995553;28;20025;-79
2023/11/01 03:36:38;;;;;;;11.93;2.20;;;;;;;;;;4998972;28;20033;-78
2023/11/01 03:39:07;;;;;;;9.20;2.00;;;;;;;;;;4999000;28;20022;-79
2023/11/01 03:41:36;;;;;;;7.37;1.80;;;;;;;;;;5000832;28;20138;-78
2023/11/01 03:44:02;;;;;;;7.83;2.20;;;;;;;;;;4993940;28;20049;-77
2023/11/01 03:46:34;;;;;;;7.97;2.70;;;;;;;;;;4999331;28;20038;-78
2023/11/01 03:49:10;;;;;;;7.70;1.90;;;;;;;;;;5000185;28;20026;-78
2023/11/01 03:51:36;;;;;;;6.90;1.83;;;;;;;;;;4999306;28;20023;-78
2023/11/01 03:54:04;;;;;;;5.67;1.97;;;;;;;;;;5000057;28;20030;-78
2023/11/01 03:56:33;;;;;;;7.00;2.23;;;;;;;;;;4991298;28;20019;-78
2023/11/01 03:59:02;;;;;;;9.73;1.77;;;;;;;;;;4998619;28;20026;-78
2023/11/01 04:01:30;;;;;;;8.47;1.90;;;;;;;;;;4993346;28;20033;-78
2023/11/01 04:04:03;;;;;;;10.67;3.33;;;;;;;;;;5000136;28;20099;-77
2023/11/01 04:06:32;;;;;;;8.97;2.07;;;;;;;;;;4997637;28;20022;-77
2023/11/01 04:09:02;;;;;;;9.43;2.00;;;;;;;;;;4997040;28;20043;-77
2023/11/01 04:11:38;;;;;;;5.53;1.53;;;;;;;;;;4998396;28;20113;-77
2023/11/01 04:14:11;;;;;;;8.87;1.90;;;;;;;;;;5002176;28;20023;-76
2023/11/01 04:16:37;;;;;;;6.13;1.90;;;;;;;;;;5003439;28;20031;-77
2023/11/01 04:19:03;;;;;;;6.27;1.77;;;;;;;;;;4999317;28;20026;-77
2023/11/01 04:21:37;;;;;;;10.70;1.80;;;;;;;;;;4997053;28;20031;-77
2023/11/01 04:24:03;;;;;;;5.87;1.63;;;;;;;;;;5000434;28;20019;-78
2023/11/01 04:26:33;;;;;;;4.87;1.90;;;;;;;;;;5002346;28;20011;-77
2023/11/01 04:29:07;;;;;;;4.00;1.77;;;;;;;;;;4998008;28;20018;-78
2023/11/01 04:31:40;;;;;;;5.27;1.60;;;;;;;;;;5002587;28;20026;-77
2023/11/01 04:34:11;;;;;;;5.30;1.60;;;;;;;;;;5002653;28;20073;-77
2023/11/01 04:36:39;;;;;;;10.10;2.43;;;;;;;;;;4996919;28;20023;-76
2023/11/01 04:39:05;;;;;;;6.40;1.87;;;;;;;;;;5000693;28;20107;-77
2023/11/01 04:41:33;;;;;;;6.07;1.97;;;;;;;;;;4996256;28;20062;-77
2023/11/01 04:44:08;;;;;;;4.40;1.80;;;;;;;;;;5001472;28;20011;-77
2023/11/01 04:46:37;;;;;;;9.30;2.07;;;;;;;;;;5010453;28;20014;-77
2023/11/01 04:49:04;;;;;;;4.13;1.87;;;;;;;;;;5000930;28;20014;-77
2023/11/01 04:51:32;;;;;;;5.03;2.13;;;;;;;;;;5008081;28;20014;-77
2023/11/01 04:53:58;;;;;;;7.10;2.07;;;;;;;;;;5004823;28;20015;-77
2023/11/01 04:56:25;;;;;;;3.87;1.37;;;;;;;;;;5001400;28;20102;-79
2023/11/01 04:59:04;;;;;;;;;;;;;;;;;;;;;
2023/11/01 05:01:33;;;;;;;9.07;2.00;;;;;;;;;;5005027;28;20038;-77
2023/11/01 05:04:02;;;;;;;6.50;1.87;;;;;;;;;;5001486;28;20018;-77
2023/11/01 05:06:45;;;;;;;5.67;2.03;;;;;;;;;;5007255;28;20050;-78
2023/11/01 05:09:12;;;;;;;11.27;2.77;;;;;;;;;;5001105;28;20022;-78
2023/11/01 05:11:41;;;;;;;8.07;3.27;;;;;;;;;;5000551;28;20014;-78
2023/11/01 05:14:09;;;;;;;6.97;3.17;;;;;;;;;;5000175;28;20011;-77
2023/11/01 05:16:42;;;;;;;6.20;2.60;;;;;;;;;;5000445;28;20019;-78
2023/11/01 05:19:10;;;;;;;6.70;2.37;;;;;;;;;;4995223;28;20019;-77
2023/11/01 05:21:37;;;;;;;5.53;2.10;;;;;;;;;;5000291;28;20003;-80
2023/11/01 05:24:06;;;;;;;7.83;3.80;;;;;;;;;;4999765;28;20011;-76
2023/11/01 05:26:35;;;;;;;14.83;2.50;;;;;;;;;;4996427;28;20046;-79
2023/11/01 05:29:11;;;;;;;4.83;1.60;;;;;;;;;;5000206;28;20011;-78
2023/11/01 05:31:42;;;;;;;6.10;2.67;;;;;;;;;;4998362;28;20011;-77
2023/11/01 05:34:11;;;;;;;5.23;2.13;;;;;;;;;;5005110;28;20027;-78
2023/11/01 05:36:38;;;;;;;9.87;3.50;;;;;;;;;;5001162;28;20018;-79
2023/11/01 05:39:08;;;;;;;7.53;2.83;;;;;;;;;;5000368;28;20046;-77
2023/11/01 05:41:36;;;;;;;6.47;2.67;;;;;;;;;;5002619;28;20066;-79
2023/11/01 05:44:05;;;;;;;3.00;1.60;;;;;;;;;;5001335;28;20023;-77
2023/11/01 05:46:31;;;;;;;8.37;2.40;;;;;;;;;;5004110;28;20007;-79
2023/11/01 05:49:02;;;;;;;8.43;3.67;;;;;;;;;;4998575;28;20010;-77
2023/11/01 05:51:28;;;;;;;4.07;1.53;;;;;;;;;;5000176;28;20203;-77
2023/11/01 05:53:59;;;;;;;7.10;2.40;;;;;;;;;;5007520;28;20058;-78
2023/11/01 05:56:27;;;;;;;5.37;1.70;;;;;;;;;;5005510;28;20094;-77
2023/11/01 05:58:55;;;;;;;2.73;1.60;;;;;;;;;;5000122;28;20007;-78
2023/11/01 06:01:27;;;;;;;5.63;2.47;;;;;;;;;;5006285;28;20087;-77
2023/11/01 06:04:00;;;;;;;9.40;2.20;;;;;;;;;;5001624;28;20011;-78
2023/11/01 06:06:28;;;;;;;6.10;2.33;;;;;;;;;;4986215;28;20095;-77
2023/11/01 06:08:55;;;;;;;8.87;1.97;;;;;;;;;;5008893;28;20047;-77
2023/11/01 06:11:22;;;;;;;6.47;2.30;;;;;;;;;;4982836;28;20018;-77
2023/11/01 06:13:53;;;;;;;4.60;2.50;;;;;;;;;;5003035;28;20026;-77
2023/11/01 06:16:21;;;;;;;3.37;1.53;;;;;;;;;;4999881;28;20023;-78
2023/11/01 06:18:53;;;;;;;2.90;1.30;;;;;;;;;;5000105;28;20088;-78
2023/11/01 06:21:19;;;;;;;5.93;3.00;;;;;;;;;;4996571;28;20011;-77
2023/11/01 06:23:45;;;;;;;5.47;2.23;;;;;;;;;;5000249;28;20041;-78
2023/11/01 06:26:19;;;;;;;4.73;2.47;;;;;;;;;;5001043;28;20015;-78
2023/11/01 06:28:45;;;;;;;4.77;2.00;;;;;;;;;;4997781;28;20208;-77
2023/11/01 06:31:19;;;;;;;5.27;2.77;;;;;;;;;;5000131;28;20047;-77
2023/11/01 06:33:48;;;;;;;7.33;2.80;;;;;;;;;;4996271;28;20035;-77
2023/11/01 06:36:34;;;;;;;5.63;2.57;;;;;;;;;;4998871;28;20030;-78
2023/11/01 06:39:00;;;;;;;8.40;2.80;;;;;;;;;;4999238;28;20070;-77
2023/11/01 06:41:30;;;;;;;6.80;3.43;;;;;;;;;;4996325;28;20018;-78
2023/11/01 06:43:56;;;;;;;6.90;3.43;;;;;;;;;;4998933;28;20127;-78
2023/11/01 06:46:22;;;;;;;7.17;3.37;;;;;;;;;;4997911;28;20015;-77
2023/11/01 06:48:48;;;;;;;10.23;2.47;;;;;;;;;;4992406;28;20027;-78
2023/11/01 06:51:18;;;;;;;11.13;3.27;;;;;;;;;;4998295;28;20077;-77
2023/11/01 06:53:46;;;;;;;9.97;3.13;;;;;;;;;;4995627;28;20066;-77
2023/11/01 06:56:13;;;;;;;11.37;4.30;;;;;;;;;;4991870;28;20038;-78
2023/11/01 06:58:39;;;;;;;6.77;3.17;;;;;;;;;;4993426;28;20022;-77
2023/11/01 07:01:09;;;;;;;13.17;3.07;;;;;;;;;;4995699;28;20023;-77
2023/11/01 07:03:35;;;;;;;7.30;2.40;;;;;;;;;;4995676;28;20027;-77
2023/11/01 07:06:01;;;;;;;9.20;3.10;;;;;;;;;;4994310;28;20015;-77
2023/11/01 07:08:30;;;;;;;6.40;2.63;;;;;;;;;;4992345;28;20123;-77
2023/11/01 07:11:05;;;;;;;6.93;2.67;;;;;;;;;;4991617;28;20035;-77
2023/11/01 07:13:34;;;;;;;8.53;2.93;;;;;;;;;;4989336;28;20026;-77
2023/11/01 07:16:00;;;;;;;5.80;2.53;;;;;;;;;;4996585;28;20026;-78
2023/11/01 07:18:28;;;;;;;9.23;2.70;;;;;;;;;;4991535;28;20031;-77
2023/11/01 07:21:00;;;;;;;21.87;2.80;;;;;;;;;;4994219;28;20062;-78
2023/11/01 07:23:26;;;;;;;13.87;2.37;;;;;;;;;;4996188;28;20027;-77
2023/11/01 07:25:52;;;;;;;8.57;2.77;;;;;;;;;;4996079;28;20034;-77
2023/11/01 07:28:20;;;;;;;12.60;3.20;;;;;;;;;;4994940;28;20094;-78
2023/11/01 07:30:51;;;;;;;7.63;2.50;;;;;;;;;;4995303;28;20034;-77
2023/11/01 07:33:18;;;;;;;11.23;4.93;;;;;;;;;;4992163;28;20046;-77
2023/11/01 07:35:44;;;;;;;10.10;2.50;;;;;;;;;;4989109;28;20033;-77
2023/11/01 07:38:13;;;;;;;4.70;2.77;;;;;;;;;;4991278;28;20030;-78
2023/11/01 07:40:41;;;;;;;9.57;2.17;;;;;;;;;;4992390;28;20038;-77
2023/11/01 07:43:07;;;;;;;10.47;2.00;;;;;;;;;;4991694;28;20042;-78
2023/11/01 07:45:36;;;;;;;6.23;1.90;;;;;;;;;;4991385;28;20034;-78
2023/11/01 07:48:02;;;;;;;7.00;1.93;;;;;;;;;;4998644;28;20055;-77
2023/11/01 07:50:28;;;;;;;5.00;1.90;;;;;;;;;;4998929;28;20046;-78
2023/11/01 07:52:56;;;;;;;7.83;1.40;;;;;;;;;;4995150;28;20039;-77
2023/11/01 07:55:25;;;;;;;3.90;1.27;;;;;;;;;;4998559;28;20011;-77
2023/11/01 07:57:53;;;;;;;6.43;1.53;;;;;;;;;;4995244;28;21034;-77
2023/11/01 08:00:22;;;;;;;6.93;1.53;;;;;;;;;;4996992;28;20049;-77
2023/11/01 08:02:53;;;;;;;7.67;2.03;;;;;;;;;;4990211;28;20026;-77
2023/11/01 08:05:19;;;;;;;5.03;1.83;;;;;;;;;;4995423;28;20030;-77
2023/11/01 08:07:45;;;;;;;9.97;1.83;;;;;;;;;;4997761;28;20027;-77
2023/11/01 08:10:11;;;;;;;9.60;1.97;;;;;;;;;;4999751;28;20027;-77
2023/11/01 08:12:38;;;;;;;9.47;1.90;;;;;;;;;;4995100;28;20019;-77
2023/11/01 08:15:11;;;;;;;5.60;1.80;;;;;;;;;;4998764;28;20035;-77
2023/11/01 08:17:37;;;;;;;7.20;1.60;;;;;;;;;;4992214;28;20047;-78
2023/11/01 08:20:09;;;;;;;8.33;1.83;;;;;;;;;;4994721;28;20120;-77
2023/11/01 08:22:35;;;;;;;9.80;1.80;;;;;;;;;;4998316;28;20033;-78
2023/11/01 08:25:01;;;;;;;6.73;1.50;;;;;;;;;;4993888;28;20030;-78
2023/11/01 08:27:28;;;;;;;4.83;1.77;;;;;;;;;;4999523;28;20035;-76
2023/11/01 08:30:03;;;;;;;7.23;2.47;;;;;;;;;;4998281;28;20041;-78
2023/11/01 08:32:40;;;;;;;8.40;2.67;;;;;;;;;;4994889;28;20023;-77
2023/11/01 08:35:08;;;;;;;13.17;2.00;;;;;;;;;;4997834;28;20027;-78
2023/11/01 08:37:39;;;;;;;8.70;2.40;;;;;;;;;;4994302;28;20094;-77
2023/11/01 08:40:06;;;;;;;5.88;2.70;;;;;;;;;;4994175;28;20019;-76
2023/11/01 08:42:41;;;;;;;8.53;1.83;;;;;;;;;;4998429;28;20061;-78
2023/11/01 08:45:10;;;;;;;9.20;1.80;;;;;;;;;;4994024;28;20051;-78
2023/11/01 08:47:38;;;;;;;14.77;3.73;;;;;;;;;;4999048;28;20066;-77
2023/11/01 08:50:07;;;;;;;14.30;3.93;;;;;;;;;;4998374;28;20030;-78
2023/11/01 08:52:46;;;;;;;10.87;2.33;;;;;;;;;;5000830;28;20033;-78
2023/11/01 08:55:20;;;;;;;6.40;1.60;;;;;;;;;;5001080;28;20049;-80
2023/11/01 08:57:46;;;;;;;3.97;1.57;;;;;;;;;;4999809;28;20027;-79
2023/11/01 09:00:20;;;;;;;4.63;1.97;;;;;;;;;;5000140;28;20022;-81
2023/11/01 09:02:49;;;;;;;5.57;1.70;;;;;;;;;;5001214;28;20010;-80
2023/11/01 09:05:15;;;;;;;11.23;2.30;;;;;;;;;;4994760;28;20026;-79
2023/11/01 09:07:44;;;;;;;13.27;2.00;;;;;;;;;;5000811;28;20042;-78
2023/11/01 09:10:10;;;;;;;5.30;1.97;;;;;;;;;;4995586;28;20045;-79
2023/11/01 09:12:36;;;;;;;5.83;1.40;;;;;;;;;;5000026;28;20094;-78
2023/11/01 09:15:06;;;;;;;7.77;2.03;;;;;;;;;;4997788;28;20046;-77
2023/11/01 09:17:33;;;;;;;8.43;1.73;;;;;;;;;;4988010;28;20021;-76
2023/11/01 09:20:01;;;;;;;6.70;1.20;;;;;;;;;;4997167;28;20027;-78
2023/11/01 09:22:30;;;;;;;6.35;2.40;;;;;;;;;;4998566;28;20027;-78
2023/11/01 09:25:03;;;;;;;6.85;1.35;;;;;;;;;;5001528;28;20018;-78
2023/11/01 09:27:29;;;;;;;11.63;1.50;;;;;;;;;;5001239;28;20061;-78
2023/11/01 09:29:57;;;;;;;6.03;1.73;;;;;;;;;;4995163;28;20042;-78
2023/11/01 09:32:26;;;;;;;5.90;1.95;;;;;;;;;;4999848;28;20019;-80
2023/11/01 09:35:11;;;;;;;7.63;1.67;;;;;;;;;;4996062;28;20061;-78
2023/11/01 09:37:38;;;;;;;11.67;2.50;;;;;;;;;;4999494;28;20056;-77
2023/11/01 09:40:04;;;;;;;6.55;1.75;;;;;;;;;;4999626;28;20081;-77
2023/11/01 09:42:37;;;;;;;9.00;1.48;;;;;;;;;;4995505;28;20038;-77
2023/11/01 09:45:05;;;;;;;6.45;2.05;;;;;;;;;;4995601;28;20014;-76
2023/11/01 09:47:33;;;;;;;6.60;1.70;;;;;;;;;;4998778;28;20023;-76
2023/11/01 09:50:02;;;;;;;5.83;1.97;;;;;;;;;;4998353;28;20078;-77
2023/11/01 09:52:30;;;;;;;4.63;1.38;;;;;;;;;;4990578;28;20031;-76
2023/11/01 09:54:58;;;;;;;8.32;1.70;;;;;;;;;;4996617;28;20018;-77
2023/11/01 09:57:28;;;;;;;7.88;1.60;;;;;;;;;;4999266;28;20027;-77
2023/11/01 09:59:54;;;;;;;8.57;2.05;;;;;;;;;;4997095;28;20034;-79
2023/11/01 10:02:25;;;;;;;6.18;1.70;;;;;;;;;;4999096;28;20397;-78
2023/11/01 10:04:51;;;;;;;7.88;1.60;;;;;;;;;;4997592;28;20023;-77
2023/11/01 10:07:27;;;;;;;3.45;1.05;;;;;;;;;;4994915;28;20111;-78
2023/11/01 10:09:55;;;;;;;8.93;1.63;;;;;;;;;;4993091;28;20038;-77
2023/11/01 10:12:21;;;;;;;8.02;1.75;;;;;;;;;;4997650;28;20019;-77
2023/11/01 10:14:48;;;;;;;8.27;1.67;;;;;;;;;;4999062;28;20018;-77
2023/11/01 10:17:31;;;;;;;;;;;;;;;;;;;;;
2023/11/01 10:19:57;;;;;;;6.10;1.45;;;;;;;;;;5000124;28;20031;-77
2023/11/01 10:22:24;;;;;;;4.60;1.33;;;;;;;;;;5001156;28;20050;-77
2023/11/01 10:24:50;;;;;;;4.93;1.38;;;;;;;;;;4999574;28;20122;-77
2023/11/01 10:27:16;;;;;;;13.10;2.13;;;;;;;;;;4996161;28;20466;-76
2023/11/01 10:29:47;;;;;;;8.77;1.70;;;;;;;;;;4999352;28;20041;-77
2023/11/01 10:32:15;;;;;;;9.75;2.05;;;;;;;;;;4999114;28;20018;-76
2023/11/01 10:34:51;;;;;;;8.07;1.52;;;;;;;;;;4994378;28;20038;-77
2023/11/01 10:37:35;;;;;;;8.35;2.28;;;;;;;;;;4997389;28;20018;-77
2023/11/01 10:40:05;;;;;;;10.55;1.58;;;;;;;;;;4990156;28;20043;-76
2023/11/01 10:42:32;;;;;;;10.48;1.73;;;;;;;;;;4978746;28;20026;-76
2023/11/01 10:44:58;;;;;;;10.05;1.85;;;;;;;;;;5003244;28;20015;-76
2023/11/01 10:47:24;;;;;;;5.78;1.50;;;;;;;;;;4998978;28;20079;-76
2023/11/01 10:49:52;;;;;;;9.40;1.48;;;;;;;;;;4998765;28;20050;-76
2023/11/01 10:52:21;;;;;;;13.25;1.42;;;;;;;;;;4998621;28;20022;-76
2023/11/01 10:54:47;;;;;;;5.50;2.05;;;;;;;;;;4999519;28;20035;-76
2023/11/01 10:57:16;;;;;;;11.73;2.30;;;;;;;;;;4999505;28;20027;-77
2023/11/01 10:59:51;;;;;;;4.97;1.42;;;;;;;;;;5002621;28;20082;-76
2023/11/01 11:02:23;;;;;;;6.03;1.38;;;;;;;;;;5001044;28;20019;-76
2023/11/01 11:05:15;;;;;;;9.68;1.65;;;;;;;;;;4999857;28;20014;-76
2023/11/01 11:07:47;;;;;;;6.32;1.35;;;;;;;;;;5000342;28;20038;-77
2023/11/01 11:10:43;;;;;;;8.63;1.38;;;;;;;;;;4992833;28;20034;-75
2023/11/01 11:15:58;;;;;;;7.07;1.65;;;;;;;;;;4998908;28;20023;-76
2023/11/01 11:18:30;;;;;;;7.97;1.23;;;;;;;;;;4979862;28;20027;-76
2023/11/01 11:21:00;;;;;;;8.40;1.42;;;;;;;;;;5003547;28;20015;-76
2023/11/01 11:23:33;;;;;;;6.40;1.38;;;;;;;;;;5004694;28;20038;-77
2023/11/01 11:26:06;;;;;;;8.60;1.55;;;;;;;;;;5001589;28;20109;-77
2023/11/01 11:28:32;;;;;;;3.72;1.10;;;;;;;;;;4999544;28;20038;-77
2023/11/01 11:31:03;;;;;;;8.68;1.60;;;;;;;;;;5002472;28;20035;-77
2023/11/01 11:33:31;;;;;;;7.03;1.52;;;;;;;;;;5002345;28;20019;-76
2023/11/01 11:36:16;;;;;;;10.10;1.27;;;;;;;;;;5010025;28;20014;-76
2023/11/01 11:39:14;;;;;;;12.50;2.58;;;;;;;;;;4999497;28;20019;-76
2023/11/01 11:41:40;;;;;;;3.50;0.77;;;;;;;;;;5004071;28;20054;-76
2023/11/01 11:44:25;;;;;;;6.03;1.10;;;;;;;;;;5001901;28;20022;-76
2023/11/01 11:46:59;;;;;;;6.53;1.20;;;;;;;;;;4998984;28;20019;-77
2023/11/01 11:49:31;;;;;;;5.53;1.65;;;;;;;;;;5002140;28;20015;-76
2023/11/01 11:52:07;;;;;;;22.98;1.50;;;;;;;;;;5005760;28;20014;-76
2023/11/01 11:54:34;;;;;;;9.52;1.38;;;;;;;;;;5005239;28;20108;-77
2023/11/01 11:59:48;;;;;;;4.03;1.10;;;;;;;;;;5284942;23;20036;-77
2023/11/01 12:02:20;;;;;;;9.15;1.90;;;;;;;;;;5020983;28;20025;-77
2023/11/01 12:04:58;;;;;;;;;;;;;;;;;;5018752;28;20043;-77
2023/11/01 12:07:24;;;;;;;6.30;1.20;;;;;;;;;;5019803;28;19902;-78
2023/11/01 12:09:53;;;;;;;7.13;1.65;;;;;;;;;;5018703;28;20034;-82
2023/11/01 12:12:42;;;;;;;6.38;1.02;;;;;;;;;;5023839;28;20018;-77
2023/11/01 12:15:14;;;;;;;7.45;1.50;;;;;;;;;;5015634;28;20017;-77
2023/11/01 12:17:56;;;;;;;9.65;1.60;;;;;;;;;;5012192;28;20095;-77
2023/11/01 12:20:34;;;;;;;7.97;1.20;;;;;;;;;;5010116;28;20022;-77
2023/11/01 12:23:12;;;;;;;7.60;1.40;;;;;;;;;;5026625;28;20032;-78
2023/11/01 12:25:48;;;;;;;7.53;2.03;;;;;;;;;;5009476;28;20037;-78
2023/11/01 12:28:33;;;;;;;9.55;1.50;;;;;;;;;;5014980;28;20027;-78
2023/11/01 12:31:13;;;;;;;11.00;1.73;;;;;;;;;;5027189;28;20026;-78
2023/11/01 12:33:46;;;;;;;14.40;1.80;;;;;;;;;;5013166;28;20092;-78
2023/11/01 12:36:18;;;;;;;5.90;1.10;;;;;;;;;;5005320;28;20017;-78
2023/11/01 12:38:47;;;;;;;4.45;1.10;;;;;;;;;;5006616;28;20069;-77
2023/11/01 12:41:27;;;;;;;7.60;2.03;;;;;;;;;;5007634;28;20030;-77
2023/11/01 12:43:55;;;;;;;6.65;1.38;;;;;;;;;;5025594;28;20041;-78
2023/11/01 12:46:23;;;;;;;6.10;1.25;;;;;;;;;;5007645;28;20029;-77
2023/11/01 12:49:00;;;;;;;9.02;1.60;;;;;;;;;;5009735;28;20018;-78
2023/11/01 12:51:44;;;;;;;7.88;1.30;;;;;;;;;;5014002;28;20042;-78
2023/11/01 12:54:16;;;;;;;5.20;1.08;;;;;;;;;;5007801;28;20086;-78
2023/11/01 12:56:46;;;;;;;9.73;1.80;;;;;;;;;;5008555;28;20022;-77
2023/11/01 12:59:15;;;;;;;8.45;1.40;;;;;;;;;;5005850;28;20427;-78
2023/11/01 13:01:45;;;;;;;8.75;1.35;;;;;;;;;;5024895;28;20090;-78
2023/11/01 13:04:12;;;;;;;8.55;1.90;;;;;;;;;;5014516;28;20080;-77
2023/11/01 13:06:39;;;;;;;7.28;2.20;;;;;;;;;;5008176;28;20026;-77
2023/11/01 13:09:08;;;;;;;8.65;1.80;;;;;;;;;;5010277;28;20037;-76
2023/11/01 13:11:51;;;;;;;9.93;1.55;;;;;;;;;;5006458;28;20037;-76
2023/11/01 13:14:20;;;;;;;5.50;1.25;;;;;;;;;;5012360;28;20023;-78
2023/11/01 13:16:48;;;;;;;8.80;1.70;;;;;;;;;;5007706;28;20101;-77
2023/11/01 13:19:14;;;;;;;5.03;1.20;;;;;;;;;;5009145;28;20029;-77
2023/11/01 13:21:41;;;;;;;8.52;2.78;;;;;;;;;;5005846;28;20105;-77
2023/11/01 13:24:12;;;;;;;10.02;1.80;;;;;;;;;;5006955;28;20034;-77
2023/11/01 13:26:41;;;;;;;11.57;1.33;;;;;;;;;;5023795;28;20026;-77
2023/11/01 13:29:17;;;;;;;7.47;1.52;;;;;;;;;;5007774;28;20018;-76
2023/11/01 13:31:52;;;;;;;5.05;1.00;;;;;;;;;;5008646;28;20038;-77
2023/11/01 13:34:18;;;;;;;7.50;1.55;;;;;;;;;;5009459;28;20010;-76
2023/11/01 13:36:47;;;;;;;8.93;2.03;;;;;;;;;;5013382;28;20030;-77
2023/11/01 13:39:21;;;;;;;6.53;2.13;;;;;;;;;;5013513;28;20033;-76
2023/11/01 13:41:51;;;;;;;4.32;1.23;;;;;;;;;;5007140;28;20094;-77
2023/11/01 13:44:23;;;;;;;14.35;2.15;;;;;;;;;;5024318;28;20041;-77
2023/11/01 13:46:56;;;;;;;5.32;1.38;;;;;;;;;;5007149;28;20033;-77
2023/11/01 13:49:24;;;;;;;6.57;1.60;;;;;;;;;;5006439;28;20030;-76
2023/11/01 13:51:53;;;;;;;11.18;2.00;;;;;;;;;;5006075;28;20037;-77
2023/11/01 13:57:08;;;;;;;8.35;1.58;;;;;;;;;;5011440;28;20085;-77
2023/11/01 13:59:37;;;;;;;13.02;2.20;;;;;;;;;;5023817;28;20025;-77
2023/11/01 14:02:21;;;;;;;12.30;2.55;;;;;;;;;;5008329;28;21053;-77
2023/11/01 14:04:52;;;;;;;10.27;1.90;;;;;;;;;;5008486;28;20022;-77
2023/11/01 14:07:25;;;;;;;12.35;1.92;;;;;;;;;;5007216;28;20030;-77
2023/11/01 14:09:58;;;;;;;9.05;1.52;;;;;;;;;;5005566;28;20029;-77
2023/11/01 14:12:26;;;;;;;7.20;1.80;;;;;;;;;;5024454;28;20022;-77
2023/11/01 14:14:54;;;;;;;9.98;3.38;;;;;;;;;;5023933;28;20021;-77
2023/11/01 14:17:33;;;;;;;;;;;;;;;;;;;;;
2023/11/01 14:20:04;;;;;;;12.77;3.40;;;;;;;;;;5026072;28;20041;-77
2023/11/01 14:22:30;;;;;;;7.10;2.30;;;;;;;;;;5007139;28;20034;-77
2023/11/01 14:25:04;;;;;;;7.72;2.70;;;;;;;;;;5006212;28;20346;-77
2023/11/01 14:27:32;;;;;;;6.15;2.10;;;;;;;;;;5012274;28;20030;-78
2023/11/01 14:29:58;;;;;;;9.25;3.30;;;;;;;;;;5018997;28;20040;-77
2023/11/01 14:32:24;;;;;;;10.57;2.53;;;;;;;;;;5006377;28;20022;-77
2023/11/01 14:34:55;;;;;;;6.97;2.50;;;;;;;;;;5007170;28;20207;-77
2023/11/01 14:37:24;;;;;;;10.70;3.10;;;;;;;;;;5006881;28;20062;-77
2023/11/01 14:39:56;;;;;;;7.82;2.38;;;;;;;;;;5023154;28;20088;-78
2023/11/01 14:42:24;;;;;;;9.05;2.28;;;;;;;;;;5023071;28;20025;-79
2023/11/01 14:44:55;;;;;;;11.20;2.17;;;;;;;;;;5004536;28;20022;-77
2023/11/01 14:47:26;;;;;;;7.55;2.58;;;;;;;;;;5008745;28;20034;-77
2023/11/01 14:49:59;;;;;;;11.13;3.00;;;;;;;;;;5005766;28;20042;-76
2023/11/01 14:52:35;;;;;;;7.72;2.15;;;;;;;;;;5008123;28;20033;-77
2023/11/01 14:55:04;;;;;;;9.85;2.70;;;;;;;;;;5011492;28;20037;-77
2023/11/01 14:57:35;;;;;;;10.15;2.10;;;;;;;;;;5005923;28;20029;-77
2023/11/01 15:00:10;;;;;;;6.97;2.53;;;;;;;;;;5009460;28;20034;-77
2023/11/01 15:02:37;;;;;;;6.40;2.03;;;;;;;;;;5007382;28;20021;-76
2023/11/01 15:05:13;;;;;;;9.15;3.28;;;;;;;;;;5024693;28;20022;-77
2023/11/01 15:07:41;;;;;;;6.82;1.98;;;;;;;;;;5022116;28;20049;-77
2023/11/01 15:10:25;;;;;;;16.10;3.42;;;;;;;;;;5002437;28;20061;-77
2023/11/01 15:12:55;;;;;;;8.95;1.73;;;;;;;;;;5002926;28;20034;-77
2023/11/01 15:15:21;;;;;;;7.53;2.35;;;;;;;;;;5007121;28;20022;-77
2023/11/01 15:17:49;;;;;;;8.38;2.55;;;;;;;;;;5023874;28;20062;-76
2023/11/01 15:20:16;;;;;;;5.68;2.38;;;;;;;;;;5005298;28;20040;-77
2023/11/01 15:22:42;;;;;;;10.10;2.20;;;;;;;;;;5024105;28;20086;-78
2023/11/01 15:25:19;;;;;;;7.18;2.38;;;;;;;;;;5023117;28;20015;-77
2023/11/01 15:27:48;;;;;;;8.48;2.92;;;;;;;;;;5007580;28;20021;-77
2023/11/01 15:30:22;;;;;;;6.72;2.47;;;;;;;;;;5007306;28;20019;-78
2023/11/01 15:32:50;;;;;;;6.65;1.88;;;;;;;;;;5005256;28;20018;-77
2023/11/01 15:35:16;;;;;;;7.22;2.33;;;;;;;;;;5007289;28;20022;-77
2023/11/01 15:37:42;;;;;;;11.07;4.25;;;;;;;;;;5022413;28;20018;-77
2023/11/01 15:40:08;;;;;;;6.38;2.10;;;;;;;;;;5008571;28;20370;-77
2023/11/01 15:42:36;;;;;;;5.45;1.88;;;;;;;;;;5006547;28;20026;-77
2023/11/01 15:45:05;;;;;;;3.83;1.50;;;;;;;;;;5010645;28;20101;-77
2023/11/01 15:47:33;;;;;;;4.55;1.05;;;;;;;;;;5004707;28;20053;-77
2023/11/01 15:50:02;;;;;;;4.95;1.45;;;;;;;;;;5024621;28;20041;-77
2023/11/01 15:52:40;;;;;;;6.75;1.98;;;;;;;;;;5006408;28;20018;-78
2023/11/01 15:55:08;;;;;;;5.55;1.38;;;;;;;;;;5022815;28;20029;-77
2023/11/01 15:57:37;;;;;;;5.25;1.33;;;;;;;;;;5024054;28;20049;-77
2023/11/01 16:00:06;;;;;;;6.13;1.23;;;;;;;;;;5004351;28;20022;-77
2023/11/01 16:02:50;;;;;;;6.43;2.00;;;;;;;;;;5022087;28;20030;-77
2023/11/01 16:05:16;;;;;;;4.90;1.25;;;;;;;;;;5021690;28;20041;-76
2023/11/01 16:07:42;;;;;;;8.02;2.67;;;;;;;;;;5023194;28;20023;-75
2023/11/01 16:10:30;;;;;;;7.50;1.70;;;;;;;;;;5009931;28;20042;-76
2023/11/01 16:13:02;;;;;;;3.40;1.30;;;;;;;;;;5026458;28;20061;-77
2023/11/01 16:15:28;;;;;;;4.30;1.48;;;;;;;;;;5027392;28;20117;-77
2023/11/01 16:17:59;;;;;;;5.40;1.38;;;;;;;;;;5025137;28;20050;-76